sensor_id;sensor_type;location;lat;lon;timestamp;pressure;altitude;pressure_sealevel;temperature;humidity
83037;BME280;73029;43.592;1.458;2024-02-26T00:00:25;98249.31;;;10.50;74.57
83037;BME280;73029;43.592;1.458;2024-02-26T00:02:51;98241.38;;;10.50;74.72
83037;BME280;73029;43.592;1.458;2024-02-26T00:05:16;98251.94;;;10.50;74.28
83037;BME280;73029;43.592;1.458;2024-02-26T00:07:41;98245.88;;;10.48;74.74
83037;BME280;73029;43.592;1.458;2024-02-26T00:10:08;98210.84;;;10.26;74.26
83037;BME280;73029;43.592;1.458;2024-02-26T00:12:33;98238.75;;;10.50;74.53
83037;BME280;73029;43.592;1.458;2024-02-26T00:14:59;98230.25;;;10.43;74.48
83037;BME280;73029;43.592;1.458;2024-02-26T00:17:24;98235.22;;;10.49;74.76
83037;BME280;73029;43.592;1.458;2024-02-26T00:19:50;98221.41;;;10.44;74.69
83037;BME280;73029;43.592;1.458;2024-02-26T00:22:15;98223.03;;;10.47;74.17
83037;BME280;73029;43.592;1.458;2024-02-26T00:24:41;98217.75;;;10.47;74.89
83037;BME280;73029;43.592;1.458;2024-02-26T00:27:06;98215.09;;;10.47;74.70
83037;BME280;73029;43.592;1.458;2024-02-26T00:29:33;98192.94;;;10.32;74.14
83037;BME280;73029;43.592;1.458;2024-02-26T00:31:58;98211.75;;;10.43;74.13
83037;BME280;73029;43.592;1.458;2024-02-26T00:34:24;98206.53;;;10.42;74.24
83037;BME280;73029;43.592;1.458;2024-02-26T00:36:49;98187.56;;;10.34;74.08
83037;BME280;73029;43.592;1.458;2024-02-26T00:39:14;98190.00;;;10.38;74.46
83037;BME280;73029;43.592;1.458;2024-02-26T00:41:40;98179.72;;;10.32;73.96
83037;BME280;73029;43.592;1.458;2024-02-26T00:44:06;98179.47;;;10.37;74.39
83037;BME280;73029;43.592;1.458;2024-02-26T00:46:31;98163.31;;;10.26;74.21
83037;BME280;73029;43.592;1.458;2024-02-26T00:48:57;98162.31;;;10.28;74.47
83037;BME280;73029;43.592;1.458;2024-02-26T00:51:22;98168.31;;;10.32;74.50
83037;BME280;73029;43.592;1.458;2024-02-26T00:53:47;98162.56;;;10.22;74.11
83037;BME280;73029;43.592;1.458;2024-02-26T00:56:13;98145.53;;;10.10;74.27
83037;BME280;73029;43.592;1.458;2024-02-26T00:58:38;98174.78;;;10.24;74.59
83037;BME280;73029;43.592;1.458;2024-02-26T01:01:04;98183.66;;;10.23;74.53
83037;BME280;73029;43.592;1.458;2024-02-26T01:03:29;98183.66;;;10.23;74.04
83037;BME280;73029;43.592;1.458;2024-02-26T01:05:55;98189.19;;;10.17;74.33
83037;BME280;73029;43.592;1.458;2024-02-26T01:08:20;98192.75;;;10.16;74.14
83037;BME280;73029;43.592;1.458;2024-02-26T01:10:46;98189.41;;;10.13;74.26
83037;BME280;73029;43.592;1.458;2024-02-26T01:13:11;98185.03;;;10.12;74.76
83037;BME280;73029;43.592;1.458;2024-02-26T01:15:36;98177.41;;;10.06;75.08
83037;BME280;73029;43.592;1.458;2024-02-26T01:18:02;98176.28;;;10.11;74.36
83037;BME280;73029;43.592;1.458;2024-02-26T01:20:28;98158.31;;;10.01;74.60
83037;BME280;73029;43.592;1.458;2024-02-26T01:22:53;98179.00;;;10.10;74.56
83037;BME280;73029;43.592;1.458;2024-02-26T01:25:18;98172.69;;;10.12;74.88
83037;BME280;73029;43.592;1.458;2024-02-26T01:27:44;98163.34;;;10.05;74.39
83037;BME280;73029;43.592;1.458;2024-02-26T01:30:10;98164.84;;;10.11;74.98
83037;BME280;73029;43.592;1.458;2024-02-26T01:32:36;98168.50;;;10.08;74.85
83037;BME280;73029;43.592;1.458;2024-02-26T01:35:02;98148.53;;;10.03;74.72
83037;BME280;73029;43.592;1.458;2024-02-26T01:37:28;98157.94;;;10.08;74.18
83037;BME280;73029;43.592;1.458;2024-02-26T01:39:55;98158.03;;;10.07;74.48
83037;BME280;73029;43.592;1.458;2024-02-26T01:42:21;98156.25;;;10.07;74.29
83037;BME280;73029;43.592;1.458;2024-02-26T01:44:46;98159.09;;;10.03;74.40
83037;BME280;73029;43.592;1.458;2024-02-26T01:47:12;98163.44;;;10.04;74.58
83037;BME280;73029;43.592;1.458;2024-02-26T01:49:39;98150.44;;;9.99;74.71
83037;BME280;73029;43.592;1.458;2024-02-26T01:52:06;98161.53;;;10.07;74.52
83037;BME280;73029;43.592;1.458;2024-02-26T01:54:37;98147.03;;;9.97;73.96
83037;BME280;73029;43.592;1.458;2024-02-26T01:57:03;98154.75;;;10.02;74.06
83037;BME280;73029;43.592;1.458;2024-02-26T01:59:30;98150.44;;;9.99;74.37
83037;BME280;73029;43.592;1.458;2024-02-26T02:01:57;98143.63;;;9.95;74.37
83037;BME280;73029;43.592;1.458;2024-02-26T02:04:24;98146.25;;;9.95;74.08
83037;BME280;73029;43.592;1.458;2024-02-26T02:06:50;98154.09;;;9.96;73.66
83037;BME280;73029;43.592;1.458;2024-02-26T02:09:15;98134.22;;;9.89;74.17
83037;BME280;73029;43.592;1.458;2024-02-26T02:11:41;98148.91;;;9.95;74.19
83037;BME280;73029;43.592;1.458;2024-02-26T02:14:06;98147.19;;;9.94;74.48
83037;BME280;73029;43.592;1.458;2024-02-26T02:16:32;98128.28;;;9.84;74.05
83037;BME280;73029;43.592;1.458;2024-02-26T02:18:58;98137.78;;;9.88;74.10
83037;BME280;73029;43.592;1.458;2024-02-26T02:21:24;98130.06;;;9.84;73.64
83037;BME280;73029;43.592;1.458;2024-02-26T02:23:49;98142.97;;;9.90;73.91
83037;BME280;73029;43.592;1.458;2024-02-26T02:26:15;98144.75;;;9.89;73.45
83037;BME280;73029;43.592;1.458;2024-02-26T02:28:41;98139.78;;;9.83;74.15
83037;BME280;73029;43.592;1.458;2024-02-26T02:31:07;98134.34;;;9.86;73.78
83037;BME280;73029;43.592;1.458;2024-02-26T02:33:34;98119.44;;;9.85;73.65
83037;BME280;73029;43.592;1.458;2024-02-26T02:35:59;98118.88;;;9.79;73.70
83037;BME280;73029;43.592;1.458;2024-02-26T02:38:25;98108.31;;;9.79;73.78
83037;BME280;73029;43.592;1.458;2024-02-26T02:40:51;98111.69;;;9.82;73.09
83037;BME280;73029;43.592;1.458;2024-02-26T02:43:17;98110.19;;;9.77;73.30
83037;BME280;73029;43.592;1.458;2024-02-26T02:45:43;98088.72;;;9.65;73.30
83037;BME280;73029;43.592;1.458;2024-02-26T02:48:08;98104.09;;;9.75;73.69
83037;BME280;73029;43.592;1.458;2024-02-26T02:50:34;98115.16;;;9.83;73.34
83037;BME280;73029;43.592;1.458;2024-02-26T02:52:59;98106.81;;;9.73;73.13
83037;BME280;73029;43.592;1.458;2024-02-26T02:55:25;98115.28;;;9.80;73.95
83037;BME280;73029;43.592;1.458;2024-02-26T02:57:50;98105.84;;;9.76;73.06
83037;BME280;73029;43.592;1.458;2024-02-26T03:00:16;98107.53;;;9.77;73.59
83037;BME280;73029;43.592;1.458;2024-02-26T03:02:41;98112.66;;;9.80;73.69
83037;BME280;73029;43.592;1.458;2024-02-26T03:05:08;98105.03;;;9.74;72.66
83037;BME280;73029;43.592;1.458;2024-02-26T03:07:33;98108.47;;;9.76;72.81
83037;BME280;73029;43.592;1.458;2024-02-26T03:09:59;98124.03;;;9.82;73.38
83037;BME280;73029;43.592;1.458;2024-02-26T03:12:24;98115.53;;;9.75;72.79
83037;BME280;73029;43.592;1.458;2024-02-26T03:14:50;98103.19;;;9.76;72.96
83037;BME280;73029;43.592;1.458;2024-02-26T03:17:15;98109.25;;;9.78;72.76
83037;BME280;73029;43.592;1.458;2024-02-26T03:19:40;98117.16;;;9.78;72.45
83037;BME280;73029;43.592;1.458;2024-02-26T03:22:07;98123.94;;;9.83;71.91
83037;BME280;73029;43.592;1.458;2024-02-26T03:24:32;98123.22;;;9.80;72.51
83037;BME280;73029;43.592;1.458;2024-02-26T03:26:57;98117.84;;;9.81;72.07
83037;BME280;73029;43.592;1.458;2024-02-26T03:29:24;98131.66;;;9.88;71.37
83037;BME280;73029;43.592;1.458;2024-02-26T03:31:49;98128.06;;;9.89;72.04
83037;BME280;73029;43.592;1.458;2024-02-26T03:34:15;98111.69;;;9.82;72.18
83037;BME280;73029;43.592;1.458;2024-02-26T03:36:41;98125.19;;;9.93;71.90
83037;BME280;73029;43.592;1.458;2024-02-26T03:39:07;98096.53;;;9.86;71.60
83037;BME280;73029;43.592;1.458;2024-02-26T03:41:36;98108.50;;;9.93;71.23
83037;BME280;73029;43.592;1.458;2024-02-26T03:44:01;98122.22;;;10.01;71.35
83037;BME280;73029;43.592;1.458;2024-02-26T03:46:27;98116.00;;;10.02;70.83
83037;BME280;73029;43.592;1.458;2024-02-26T03:48:52;98116.13;;;9.99;71.39
83037;BME280;73029;43.592;1.458;2024-02-26T03:51:18;98117.00;;;9.99;70.47
83037;BME280;73029;43.592;1.458;2024-02-26T03:53:43;98116.13;;;9.99;70.89
83037;BME280;73029;43.592;1.458;2024-02-26T03:56:11;98075.84;;;9.95;70.46
83037;BME280;73029;43.592;1.458;2024-02-26T03:58:36;98097.59;;;10.01;70.13
83037;BME280;73029;43.592;1.458;2024-02-26T04:01:02;98094.13;;;10.00;70.60
83037;BME280;73029;43.592;1.458;2024-02-26T04:03:27;98104.59;;;10.02;70.16
83037;BME280;73029;43.592;1.458;2024-02-26T04:05:53;98124.41;;;10.10;70.38
83037;BME280;73029;43.592;1.458;2024-02-26T04:08:18;98123.72;;;10.07;70.38
83037;BME280;73029;43.592;1.458;2024-02-26T04:10:43;98126.09;;;10.11;70.47
83037;BME280;73029;43.592;1.458;2024-02-26T04:13:09;98118.81;;;10.16;70.83
83037;BME280;73029;43.592;1.458;2024-02-26T04:15:34;98120.63;;;10.16;70.40
83037;BME280;73029;43.592;1.458;2024-02-26T04:18:00;98101.50;;;10.11;69.97
83037;BME280;73029;43.592;1.458;2024-02-26T04:20:25;98125.41;;;10.27;70.12
83037;BME280;73029;43.592;1.458;2024-02-26T04:22:51;98123.25;;;10.35;69.66
83037;BME280;73029;43.592;1.458;2024-02-26T04:25:16;98114.56;;;10.33;69.63
83037;BME280;73029;43.592;1.458;2024-02-26T04:27:41;98102.84;;;10.38;69.58
83037;BME280;73029;43.592;1.458;2024-02-26T04:30:07;98105.41;;;10.40;69.42
83037;BME280;73029;43.592;1.458;2024-02-26T04:32:33;98118.22;;;10.47;69.36
83037;BME280;73029;43.592;1.458;2024-02-26T04:35:00;98092.03;;;10.43;69.58
83037;BME280;73029;43.592;1.458;2024-02-26T04:37:25;98092.50;;;10.51;69.32
83037;BME280;73029;43.592;1.458;2024-02-26T04:39:58;98083.75;;;10.50;68.92
83037;BME280;73029;43.592;1.458;2024-02-26T04:42:24;98104.03;;;10.50;68.32
83037;BME280;73029;43.592;1.458;2024-02-26T04:44:49;98113.66;;;10.51;68.69
83037;BME280;73029;43.592;1.458;2024-02-26T04:47:15;98118.47;;;10.60;68.91
83037;BME280;73029;43.592;1.458;2024-02-26T04:49:41;98115.72;;;10.62;68.14
83037;BME280;73029;43.592;1.458;2024-02-26T04:52:06;98129.66;;;10.65;68.00
83037;BME280;73029;43.592;1.458;2024-02-26T04:54:31;98130.38;;;10.69;68.13
83037;BME280;73029;43.592;1.458;2024-02-26T04:56:57;98130.28;;;10.70;68.27
83037;BME280;73029;43.592;1.458;2024-02-26T04:59:22;98110.09;;;10.69;67.12
83037;BME280;73029;43.592;1.458;2024-02-26T05:01:47;98104.63;;;10.72;67.55
83037;BME280;73029;43.592;1.458;2024-02-26T05:04:13;98123.75;;;10.77;67.96
83037;BME280;73029;43.592;1.458;2024-02-26T05:06:38;98104.50;;;10.75;67.62
83037;BME280;73029;43.592;1.458;2024-02-26T05:09:04;98119.19;;;10.81;67.31
83037;BME280;73029;43.592;1.458;2024-02-26T05:11:29;98128.72;;;10.84;67.27
83037;BME280;73029;43.592;1.458;2024-02-26T05:13:54;98140.16;;;10.84;66.97
83037;BME280;73029;43.592;1.458;2024-02-26T05:16:20;98124.28;;;10.84;66.99
83037;BME280;73029;43.592;1.458;2024-02-26T05:18:49;98120.72;;;10.85;66.68
83037;BME280;73029;43.592;1.458;2024-02-26T05:21:15;98120.31;;;10.93;66.86
83037;BME280;73029;43.592;1.458;2024-02-26T05:23:40;98129.44;;;10.87;66.87
83037;BME280;73029;43.592;1.458;2024-02-26T05:26:08;98102.00;;;10.72;66.36
83037;BME280;73029;43.592;1.458;2024-02-26T05:28:33;98128.50;;;10.88;67.28
83037;BME280;73029;43.592;1.458;2024-02-26T05:30:58;98122.28;;;10.89;67.10
83037;BME280;73029;43.592;1.458;2024-02-26T05:33:24;98108.34;;;10.86;66.65
83037;BME280;73029;43.592;1.458;2024-02-26T05:35:50;98119.72;;;10.88;66.39
83037;BME280;73029;43.592;1.458;2024-02-26T05:38:15;98116.28;;;10.86;66.72
83037;BME280;73029;43.592;1.458;2024-02-26T05:40:41;98121.56;;;10.86;66.79
83037;BME280;73029;43.592;1.458;2024-02-26T05:43:06;98117.13;;;10.86;67.14
83037;BME280;73029;43.592;1.458;2024-02-26T05:45:31;98115.81;;;10.77;66.60
83037;BME280;73029;43.592;1.458;2024-02-26T05:47:58;98124.16;;;10.87;67.25
83037;BME280;73029;43.592;1.458;2024-02-26T05:50:23;98130.59;;;10.82;67.30
83037;BME280;73029;43.592;1.458;2024-02-26T05:52:49;98133.38;;;10.78;66.97
83037;BME280;73029;43.592;1.458;2024-02-26T05:55:14;98133.31;;;10.80;67.31
83037;BME280;73029;43.592;1.458;2024-02-26T05:57:40;98131.78;;;10.76;66.62
83037;BME280;73029;43.592;1.458;2024-02-26T06:00:06;98145.66;;;10.79;66.91
83037;BME280;73029;43.592;1.458;2024-02-26T06:02:32;98139.63;;;10.77;66.57
83037;BME280;73029;43.592;1.458;2024-02-26T06:04:57;98129.03;;;10.77;67.01
83037;BME280;73029;43.592;1.458;2024-02-26T06:07:23;98119.81;;;10.69;66.63
83037;BME280;73029;43.592;1.458;2024-02-26T06:09:48;98119.63;;;10.72;66.40
83037;BME280;73029;43.592;1.458;2024-02-26T06:12:14;98134.31;;;10.77;66.42
83037;BME280;73029;43.592;1.458;2024-02-26T06:14:39;98150.34;;;10.74;65.95
83037;BME280;73029;43.592;1.458;2024-02-26T06:17:05;98149.41;;;10.75;66.06
83037;BME280;73029;43.592;1.458;2024-02-26T06:19:32;98141.63;;;10.72;65.77
83037;BME280;73029;43.592;1.458;2024-02-26T06:21:57;98149.84;;;10.66;65.18
83037;BME280;73029;43.592;1.458;2024-02-26T06:24:23;98145.50;;;10.65;65.55
83037;BME280;73029;43.592;1.458;2024-02-26T06:26:48;98145.81;;;10.59;65.04
83037;BME280;73029;43.592;1.458;2024-02-26T06:29:14;98139.69;;;10.59;64.79
83037;BME280;73029;43.592;1.458;2024-02-26T06:31:40;98138.81;;;10.58;65.14
83037;BME280;73029;43.592;1.458;2024-02-26T06:34:05;98150.38;;;10.56;64.93
83037;BME280;73029;43.592;1.458;2024-02-26T06:36:30;98161.53;;;10.62;65.28
83037;BME280;73029;43.592;1.458;2024-02-26T06:38:57;98167.81;;;10.60;64.92
83037;BME280;73029;43.592;1.458;2024-02-26T06:41:23;98147.34;;;10.46;64.81
83037;BME280;73029;43.592;1.458;2024-02-26T06:43:55;98175.66;;;10.61;64.70
83037;BME280;73029;43.592;1.458;2024-02-26T06:46:22;98173.94;;;10.60;64.55
83037;BME280;73029;43.592;1.458;2024-02-26T06:48:48;98192.31;;;10.63;65.18
83037;BME280;73029;43.592;1.458;2024-02-26T06:51:14;98174.31;;;10.52;64.64
83037;BME280;73029;43.592;1.458;2024-02-26T06:53:39;98185.44;;;10.59;64.34
83037;BME280;73029;43.592;1.458;2024-02-26T06:56:05;98186.50;;;10.55;64.13
83037;BME280;73029;43.592;1.458;2024-02-26T06:58:30;98190.00;;;10.56;64.01
83037;BME280;73029;43.592;1.458;2024-02-26T07:00:56;98174.91;;;10.40;63.68
83037;BME280;73029;43.592;1.458;2024-02-26T07:03:21;98212.88;;;10.57;63.60
83037;BME280;73029;43.592;1.458;2024-02-26T07:05:48;98196.53;;;10.48;63.28
83037;BME280;73029;43.592;1.458;2024-02-26T07:08:13;98211.94;;;10.58;62.87
83037;BME280;73029;43.592;1.458;2024-02-26T07:10:39;98208.59;;;10.54;63.12
83037;BME280;73029;43.592;1.458;2024-02-26T07:13:04;98206.78;;;10.55;63.52
83037;BME280;73029;43.592;1.458;2024-02-26T07:15:29;98198.22;;;10.49;62.58
83037;BME280;73029;43.592;1.458;2024-02-26T07:17:55;98212.88;;;10.57;62.52
83037;BME280;73029;43.592;1.458;2024-02-26T07:20:20;98207.66;;;10.55;63.34
83037;BME280;73029;43.592;1.458;2024-02-26T07:22:46;98211.88;;;10.59;63.22
83037;BME280;73029;43.592;1.458;2024-02-26T07:25:11;98199.25;;;10.47;62.57
83037;BME280;73029;43.592;1.458;2024-02-26T07:27:39;98228.34;;;10.64;62.20
83037;BME280;73029;43.592;1.458;2024-02-26T07:30:06;98241.66;;;10.63;62.53
83037;BME280;73029;43.592;1.458;2024-02-26T07:32:33;98231.09;;;10.63;62.60
83037;BME280;73029;43.592;1.458;2024-02-26T07:34:58;98231.84;;;10.65;62.25
83037;BME280;73029;43.592;1.458;2024-02-26T07:37:23;98231.78;;;10.66;61.93
83037;BME280;73029;43.592;1.458;2024-02-26T07:39:49;98241.28;;;10.70;61.62
83037;BME280;73029;43.592;1.458;2024-02-26T07:42:14;98201.38;;;10.58;61.32
83037;BME280;73029;43.592;1.458;2024-02-26T07:44:40;98233.72;;;10.80;61.21
83037;BME280;73029;43.592;1.458;2024-02-26T07:47:09;98219.91;;;10.75;60.95
83037;BME280;73029;43.592;1.458;2024-02-26T07:49:34;98226.66;;;10.81;61.40
83037;BME280;73029;43.592;1.458;2024-02-26T07:52:02;98239.53;;;10.88;61.32
83037;BME280;73029;43.592;1.458;2024-02-26T07:54:28;98233.06;;;10.94;61.42
83037;BME280;73029;43.592;1.458;2024-02-26T07:56:53;98227.84;;;10.92;60.68
83037;BME280;73029;43.592;1.458;2024-02-26T07:59:18;98242.94;;;10.90;60.70
83037;BME280;73029;43.592;1.458;2024-02-26T08:01:44;98233.75;;;10.97;60.16
83037;BME280;73029;43.592;1.458;2024-02-26T08:04:10;98237.25;;;10.98;59.46
83037;BME280;73029;43.592;1.458;2024-02-26T08:06:36;98225.06;;;10.95;59.52
83037;BME280;73029;43.592;1.458;2024-02-26T08:09:01;98232.47;;;11.06;59.56
83037;BME280;73029;43.592;1.458;2024-02-26T08:11:26;98228.03;;;11.07;59.38
83037;BME280;73029;43.592;1.458;2024-02-26T08:13:53;98227.09;;;11.08;59.28
83037;BME280;73029;43.592;1.458;2024-02-26T08:16:18;98226.63;;;11.17;58.63
83037;BME280;73029;43.592;1.458;2024-02-26T08:18:44;98222.34;;;11.14;58.96
83037;BME280;73029;43.592;1.458;2024-02-26T08:21:09;98238.44;;;11.27;58.61
83037;BME280;73029;43.592;1.458;2024-02-26T08:23:35;98240.94;;;11.30;58.95
83037;BME280;73029;43.592;1.458;2024-02-26T08:26:00;98246.69;;;11.38;58.87
83037;BME280;73029;43.592;1.458;2024-02-26T08:28:25;98243.78;;;11.43;58.98
83037;BME280;73029;43.592;1.458;2024-02-26T08:30:51;98233.06;;;11.46;58.40
83037;BME280;73029;43.592;1.458;2024-02-26T08:33:16;98240.78;;;11.50;57.94
83037;BME280;73029;43.592;1.458;2024-02-26T08:35:42;98238.81;;;11.54;57.74
83037;BME280;73029;43.592;1.458;2024-02-26T08:38:07;98230.88;;;11.54;58.28
83037;BME280;73029;43.592;1.458;2024-02-26T08:40:32;98226.38;;;11.56;57.75
83037;BME280;73029;43.592;1.458;2024-02-26T08:42:58;98224.41;;;11.59;57.28
83037;BME280;73029;43.592;1.458;2024-02-26T08:45:23;98223.47;;;11.60;57.19
83037;BME280;73029;43.592;1.458;2024-02-26T08:47:49;98219.66;;;11.66;56.80
83037;BME280;73029;43.592;1.458;2024-02-26T08:50:15;98235.22;;;11.72;56.71
83037;BME280;73029;43.592;1.458;2024-02-26T08:52:40;98219.19;;;11.75;56.84
83037;BME280;73029;43.592;1.458;2024-02-26T08:55:06;98226.19;;;11.76;56.57
83037;BME280;73029;43.592;1.458;2024-02-26T08:57:34;98232.13;;;11.81;56.12
83037;BME280;73029;43.592;1.458;2024-02-26T09:00:00;98234.78;;;11.80;56.10
83037;BME280;73029;43.592;1.458;2024-02-26T09:02:26;98235.19;;;11.90;55.48
83037;BME280;73029;43.592;1.458;2024-02-26T09:04:51;98220.69;;;11.79;55.81
83037;BME280;73029;43.592;1.458;2024-02-26T09:07:19;98241.97;;;11.95;55.76
83037;BME280;73029;43.592;1.458;2024-02-26T09:09:44;98221.53;;;11.97;55.24
83037;BME280;73029;43.592;1.458;2024-02-26T09:12:10;98241.78;;;11.98;54.87
83037;BME280;73029;43.592;1.458;2024-02-26T09:14:35;98221.91;;;12.07;54.58
83037;BME280;73029;43.592;1.458;2024-02-26T09:17:01;98250.88;;;12.10;54.66
83037;BME280;73029;43.592;1.458;2024-02-26T09:19:26;98258.56;;;12.15;53.91
83037;BME280;73029;43.592;1.458;2024-02-26T09:21:55;98249.94;;;12.11;54.15
83037;BME280;73029;43.592;1.458;2024-02-26T09:24:23;98256.53;;;12.20;54.39
83037;BME280;73029;43.592;1.458;2024-02-26T09:26:49;98277.50;;;12.24;53.81
83037;BME280;73029;43.592;1.458;2024-02-26T09:29:15;98256.88;;;12.29;53.87
83037;BME280;73029;43.592;1.458;2024-02-26T09:31:40;98281.28;;;12.36;53.69
83037;BME280;73029;43.592;1.458;2024-02-26T09:34:07;98265.78;;;12.44;53.66
83037;BME280;73029;43.592;1.458;2024-02-26T09:36:33;98256.03;;;12.45;53.42
83037;BME280;73029;43.592;1.458;2024-02-26T09:38:59;98272.13;;;12.57;52.98
83037;BME280;73029;43.592;1.458;2024-02-26T09:41:29;98273.66;;;12.61;52.37
83037;BME280;73029;43.592;1.458;2024-02-26T09:43:56;98274.25;;;12.66;52.89
83037;BME280;73029;43.592;1.458;2024-02-26T09:46:23;98238.59;;;12.56;53.09
83037;BME280;73029;43.592;1.458;2024-02-26T09:48:49;98256.03;;;12.76;51.82
83037;BME280;73029;43.592;1.458;2024-02-26T09:51:15;98260.25;;;12.80;51.97
83037;BME280;73029;43.592;1.458;2024-02-26T09:53:43;98254.41;;;12.89;52.13
83037;BME280;73029;43.592;1.458;2024-02-26T09:56:11;98249.09;;;12.89;51.78
83037;BME280;73029;43.592;1.458;2024-02-26T09:58:39;98242.22;;;13.01;51.06
83037;BME280;73029;43.592;1.458;2024-02-26T10:01:11;98250.94;;;13.03;50.99
83037;BME280;73029;43.592;1.458;2024-02-26T10:03:38;98239.91;;;13.11;51.31
83037;BME280;73029;43.592;1.458;2024-02-26T10:06:07;98231.00;;;13.12;50.10
83037;BME280;73029;43.592;1.458;2024-02-26T10:08:35;98257.81;;;13.23;50.07
83037;BME280;73029;43.592;1.458;2024-02-26T10:11:00;98236.56;;;13.23;50.47
83037;BME280;73029;43.592;1.458;2024-02-26T10:13:26;98234.47;;;13.28;50.18
83037;BME280;73029;43.592;1.458;2024-02-26T10:15:51;98241.91;;;13.37;49.71
83037;BME280;73029;43.592;1.458;2024-02-26T10:18:17;98238.88;;;13.43;48.58
83037;BME280;73029;43.592;1.458;2024-02-26T10:20:42;98243.72;;;13.51;49.27
83037;BME280;73029;43.592;1.458;2024-02-26T10:23:08;98220.91;;;13.49;49.15
83037;BME280;73029;43.592;1.458;2024-02-26T10:25:33;98216.34;;;13.51;49.41
83037;BME280;73029;43.592;1.458;2024-02-26T10:28:00;98235.50;;;13.70;49.36
83037;BME280;73029;43.592;1.458;2024-02-26T10:30:28;98247.09;;;13.83;48.54
83037;BME280;73029;43.592;1.458;2024-02-26T10:32:55;98239.97;;;13.84;47.56
83037;BME280;73029;43.592;1.458;2024-02-26T10:35:21;98237.78;;;13.90;48.15
83037;BME280;73029;43.592;1.458;2024-02-26T10:37:47;98232.88;;;13.98;48.17
83037;BME280;73029;43.592;1.458;2024-02-26T10:40:16;98238.84;;;14.02;46.68
83037;BME280;73029;43.592;1.458;2024-02-26T10:42:43;98236.50;;;13.97;47.51
83037;BME280;73029;43.592;1.458;2024-02-26T10:45:09;98262.66;;;14.04;46.83
83037;BME280;73029;43.592;1.458;2024-02-26T10:47:36;98232.50;;;14.05;47.06
83037;BME280;73029;43.592;1.458;2024-02-26T10:50:02;98229.53;;;14.09;46.96
83037;BME280;73029;43.592;1.458;2024-02-26T10:52:31;98216.19;;;14.11;47.11
83037;BME280;73029;43.592;1.458;2024-02-26T10:55:00;98217.88;;;14.12;47.29
83037;BME280;73029;43.592;1.458;2024-02-26T10:57:31;98230.00;;;14.16;46.74
83037;BME280;73029;43.592;1.458;2024-02-26T10:59:59;98217.28;;;14.21;46.27
83037;BME280;73029;43.592;1.458;2024-02-26T11:02:25;98211.41;;;14.16;45.68
83037;BME280;73029;43.592;1.458;2024-02-26T11:04:52;98217.69;;;14.15;46.09
83037;BME280;73029;43.592;1.458;2024-02-26T11:07:19;98223.94;;;14.14;46.07
83037;BME280;73029;43.592;1.458;2024-02-26T11:09:46;98233.81;;;14.12;46.13
83037;BME280;73029;43.592;1.458;2024-02-26T11:12:17;98224.63;;;14.17;46.46
83037;BME280;73029;43.592;1.458;2024-02-26T11:14:46;98240.47;;;14.19;45.57
83037;BME280;73029;43.592;1.458;2024-02-26T11:17:13;98223.84;;;14.15;46.13
83037;BME280;73029;43.592;1.458;2024-02-26T11:19:41;98229.09;;;14.17;46.07
83037;BME280;73029;43.592;1.458;2024-02-26T11:22:08;98243.97;;;14.19;46.73
83037;BME280;73029;43.592;1.458;2024-02-26T11:24:33;98219.19;;;14.19;46.63
83037;BME280;73029;43.592;1.458;2024-02-26T11:27:02;98226.13;;;14.21;46.25
83037;BME280;73029;43.592;1.458;2024-02-26T11:29:38;98216.44;;;14.20;46.56
83037;BME280;73029;43.592;1.458;2024-02-26T11:32:05;98221.56;;;14.23;46.02
83037;BME280;73029;43.592;1.458;2024-02-26T11:34:31;98214.81;;;14.32;46.98
83037;BME280;73029;43.592;1.458;2024-02-26T11:36:57;98199.94;;;14.30;46.33
83037;BME280;73029;43.592;1.458;2024-02-26T11:39:24;98206.44;;;14.38;45.62
83037;BME280;73029;43.592;1.458;2024-02-26T11:41:50;98208.56;;;14.47;45.50
83037;BME280;73029;43.592;1.458;2024-02-26T11:44:28;98210.06;;;14.51;45.12
83037;BME280;73029;43.592;1.458;2024-02-26T11:46:56;98212.13;;;14.61;45.06
83037;BME280;73029;43.592;1.458;2024-02-26T11:51:54;98204.50;;;14.69;44.43
83037;BME280;73029;43.592;1.458;2024-02-26T11:54:46;98202.13;;;14.64;43.92
83037;BME280;73029;43.592;1.458;2024-02-26T11:57:46;98201.09;;;14.67;44.71
83037;BME280;73029;43.592;1.458;2024-02-26T12:00:13;98192.50;;;14.76;44.20
83037;BME280;73029;43.592;1.458;2024-02-26T12:02:50;98187.00;;;14.79;43.94
83037;BME280;73029;43.592;1.458;2024-02-26T12:05:23;98160.19;;;14.82;43.82
83037;BME280;73029;43.592;1.458;2024-02-26T12:12:53;98159.91;;;14.99;42.89
83037;BME280;73029;43.592;1.458;2024-02-26T12:15:22;98155.97;;;15.05;42.72
83037;BME280;73029;43.592;1.458;2024-02-26T12:17:48;98154.38;;;15.15;43.00
83037;BME280;73029;43.592;1.458;2024-02-26T12:20:16;98129.38;;;15.18;42.50
83037;BME280;73029;43.592;1.458;2024-02-26T12:22:45;98158.44;;;15.33;42.75
83037;BME280;73029;43.592;1.458;2024-02-26T12:25:12;98107.69;;;15.24;42.41
83037;BME280;73029;43.592;1.458;2024-02-26T12:27:38;98131.09;;;15.44;42.03
83037;BME280;73029;43.592;1.458;2024-02-26T12:30:04;98123.53;;;15.51;41.17
83037;BME280;73029;43.592;1.458;2024-02-26T12:32:31;98128.53;;;15.55;42.09
83037;BME280;73029;43.592;1.458;2024-02-26T12:34:58;98131.75;;;15.60;41.55
83037;BME280;73029;43.592;1.458;2024-02-26T12:37:26;98128.69;;;15.67;41.99
83037;BME280;73029;43.592;1.458;2024-02-26T12:39:52;98117.25;;;15.65;40.59
83037;BME280;73029;43.592;1.458;2024-02-26T12:42:18;98125.34;;;15.76;40.95
83037;BME280;73029;43.592;1.458;2024-02-26T12:44:45;98119.59;;;15.82;40.63
83037;BME280;73029;43.592;1.458;2024-02-26T12:47:11;98105.53;;;15.80;40.80
83037;BME280;73029;43.592;1.458;2024-02-26T12:49:42;98102.31;;;15.87;41.62
83037;BME280;73029;43.592;1.458;2024-02-26T12:52:09;98093.88;;;15.94;41.19
83037;BME280;73029;43.592;1.458;2024-02-26T12:54:35;98098.44;;;16.04;41.00
83037;BME280;73029;43.592;1.458;2024-02-26T12:57:05;98101.66;;;16.21;41.70
83037;BME280;73029;43.592;1.458;2024-02-26T12:59:32;98091.31;;;16.29;41.49
83037;BME280;73029;43.592;1.458;2024-02-26T13:01:58;98071.69;;;16.30;40.48
83037;BME280;73029;43.592;1.458;2024-02-26T13:04:26;98086.13;;;16.38;40.29